createdAt,value
2022-11-19T00:00:01.197Z,76.97
2022-11-19T00:01:04.727Z,76.90
2022-11-19T00:02:08.452Z,76.69
2022-11-19T00:03:11.197Z,76.63
2022-11-19T00:04:14.858Z,76.94
2022-11-19T00:05:17.674Z,76.71
2022-11-19T00:06:22.497Z,76.85
2022-11-19T00:07:26.250Z,76.54
2022-11-19T00:08:29.559Z,76.95
2022-11-19T00:09:34.143Z,76.65
2022-11-19T00:10:36.974Z,76.53
2022-11-19T00:11:58.062Z,76.73
2022-11-19T00:13:03.386Z,76.77
2022-11-19T00:14:06.218Z,76.85
2022-11-19T00:15:10.187Z,76.78
2022-11-19T00:16:13.924Z,76.74
2022-11-19T00:17:17.627Z,76.57
2022-11-19T00:18:20.415Z,76.53
2022-11-19T00:19:24.166Z,76.69
2022-11-19T00:20:28.435Z,76.63
2022-11-19T00:21:31.074Z,76.54
2022-11-19T00:22:34.907Z,76.64
2022-11-19T00:23:37.959Z,76.65
2022-11-19T00:24:41.649Z,76.67
2022-11-19T00:25:44.269Z,76.45
2022-11-19T00:26:48.036Z,76.41
2022-11-19T00:27:51.079Z,76.44
2022-11-19T00:28:56.942Z,76.52
2022-11-19T00:29:59.686Z,76.49
2022-11-19T00:31:05.365Z,76.60
2022-11-19T00:32:07.991Z,76.39
2022-11-19T00:33:11.706Z,76.55
2022-11-19T00:34:14.425Z,76.64
2022-11-19T00:35:18.205Z,76.60
2022-11-19T00:36:21.575Z,76.68
2022-11-19T00:37:25.975Z,76.60
2022-11-19T00:38:29.708Z,76.63
2022-11-19T00:39:33.615Z,76.93
2022-11-19T00:40:36.269Z,76.69
2022-11-19T00:41:39.951Z,76.90
2022-11-19T00:43:02.719Z,76.75
2022-11-19T00:44:07.927Z,76.63
2022-11-19T00:45:11.005Z,76.61
2022-11-19T00:46:15.338Z,76.54
2022-11-19T00:47:19.028Z,76.68
2022-11-19T00:48:21.678Z,76.52
2022-11-19T00:49:25.454Z,76.74
2022-11-19T00:50:28.166Z,76.75
2022-11-19T00:51:32.309Z,76.65
2022-11-19T00:52:34.918Z,76.76
2022-11-19T00:53:38.704Z,76.66
2022-11-19T00:54:41.335Z,76.79
2022-11-19T00:55:45.014Z,76.71
2022-11-19T00:56:48.719Z,76.54
2022-11-19T00:57:51.388Z,76.46
2022-11-19T00:58:55.389Z,76.70
2022-11-19T00:59:59.578Z,76.77
2022-11-19T01:01:03.385Z,76.67
2022-11-19T01:02:06.088Z,76.65
2022-11-19T01:03:09.757Z,77.09
2022-11-19T01:04:13.468Z,76.77
2022-11-19T01:05:16.278Z,76.91
2022-11-19T01:06:21.842Z,76.86
2022-11-19T01:07:24.588Z,76.95
2022-11-19T01:08:28.628Z,76.83
2022-11-19T01:09:32.435Z,76.82
2022-11-19T01:10:35.741Z,76.79
2022-11-19T01:11:40.066Z,76.92
2022-11-19T01:12:57.615Z,76.72
2022-11-19T01:14:00.859Z,76.75
2022-11-19T01:15:06.367Z,76.77
2022-11-19T01:16:11.147Z,77.00
2022-11-19T01:17:14.938Z,76.82
2022-11-19T01:18:18.661Z,76.67
2022-11-19T01:19:22.610Z,76.66
2022-11-19T01:20:25.526Z,76.67
2022-11-19T01:21:31.537Z,76.42
2022-11-19T01:22:34.181Z,76.24
2022-11-19T01:23:38.070Z,75.99
2022-11-19T01:24:40.723Z,76.48
2022-11-19T01:25:44.444Z,76.09
2022-11-19T01:26:48.147Z,76.52
2022-11-19T01:27:50.817Z,76.36
2022-11-19T01:28:54.828Z,76.17
2022-11-19T01:29:57.659Z,76.46
2022-11-19T01:31:08.086Z,76.65
2022-11-19T01:32:11.765Z,76.74
2022-11-19T01:33:15.495Z,76.80
2022-11-19T01:34:18.178Z,76.68
2022-11-19T01:35:21.875Z,77.37
2022-11-19T01:36:27.017Z,76.78
2022-11-19T01:37:29.713Z,77.44
2022-11-19T01:38:33.878Z,77.46
2022-11-19T01:39:36.539Z,77.44
2022-11-19T01:40:45.797Z,77.57
2022-11-19T01:41:48.454Z,78.14
2022-11-19T01:42:53.996Z,78.00
2022-11-19T01:43:59.889Z,77.98
2022-11-19T01:45:04.841Z,77.89
2022-11-19T01:46:10.285Z,78.46
2022-11-19T01:47:12.928Z,78.31
2022-11-19T01:48:20.136Z,78.57
2022-11-19T01:49:23.856Z,78.57
2022-11-19T01:50:27.297Z,78.66
2022-11-19T01:51:33.069Z,78.67
2022-11-19T01:52:35.750Z,78.82
2022-11-19T01:53:40.248Z,78.72
2022-11-19T01:54:45.647Z,78.29
2022-11-19T01:55:49.731Z,78.35
2022-11-19T01:56:53.969Z,78.33
2022-11-19T01:58:01.123Z,78.88
2022-11-19T01:59:07.550Z,78.59
2022-11-19T02:00:11.619Z,78.51
2022-11-19T02:01:17.244Z,78.62
2022-11-19T02:02:20.565Z,78.75
2022-11-19T02:03:24.395Z,78.69
2022-11-19T02:04:27.743Z,78.53
2022-11-19T02:05:31.527Z,79.00
2022-11-19T02:06:35.818Z,78.89
2022-11-19T02:07:41.097Z,78.83
2022-11-19T02:08:46.227Z,79.31
2022-11-19T02:09:49.798Z,79.07
2022-11-19T02:11:02.031Z,79.30
2022-11-19T02:12:22.629Z,79.15
2022-11-19T02:13:31.898Z,79.34
2022-11-19T02:14:56.025Z,78.99
2022-11-19T02:16:04.220Z,79.21
2022-11-19T02:17:15.017Z,79.32
2022-11-19T02:18:33.689Z,79.53
2022-11-19T02:20:02.246Z,78.83
2022-11-19T02:21:22.578Z,79.31
2022-11-19T02:22:39.030Z,78.96
2022-11-19T02:24:09.777Z,79.40
2022-11-19T02:25:19.176Z,79.38
2022-11-19T02:26:40.860Z,78.99
2022-11-19T02:27:56.623Z,79.37
2022-11-19T02:29:07.858Z,79.48
2022-11-19T02:30:14.237Z,79.21
2022-11-19T02:31:21.799Z,79.36
2022-11-19T02:32:29.557Z,79.26
2022-11-19T02:33:37.867Z,79.21
2022-11-19T02:34:45.051Z,79.32
2022-11-19T02:35:52.526Z,79.16
2022-11-19T02:37:00.350Z,79.13
2022-11-19T02:38:06.845Z,79.15
2022-11-19T02:39:15.836Z,79.51
2022-11-19T02:40:24.413Z,79.59
2022-11-19T02:41:35.229Z,79.85
2022-11-19T02:42:46.088Z,79.60
2022-11-19T02:43:50.833Z,79.49
2022-11-19T02:45:01.958Z,79.76
2022-11-19T02:46:10.889Z,79.81
2022-11-19T02:47:17.861Z,80.15
2022-11-19T02:48:24.586Z,79.74
2022-11-19T02:49:29.549Z,79.85
2022-11-19T02:50:35.338Z,80.05
2022-11-19T02:51:38.320Z,80.48
2022-11-19T02:52:42.164Z,80.57
2022-11-19T02:53:48.790Z,80.31
2022-11-19T02:54:51.476Z,80.29
2022-11-19T02:56:13.457Z,80.28
2022-11-19T02:57:16.689Z,80.35
2022-11-19T02:58:36.048Z,80.40
2022-11-19T02:59:59.637Z,80.24
2022-11-19T03:01:21.650Z,80.56
2022-11-19T03:02:47.488Z,80.73
2022-11-19T03:04:11.355Z,80.73
2022-11-19T03:05:18.105Z,80.51
2022-11-19T03:06:23.837Z,80.74
2022-11-19T03:07:27.625Z,80.64
2022-11-19T03:08:30.385Z,80.67
2022-11-19T03:09:36.223Z,80.44
2022-11-19T03:10:46.466Z,80.64
2022-11-19T03:11:54.147Z,80.67
2022-11-19T03:13:22.050Z,80.61
2022-11-19T03:14:45.518Z,80.51
2022-11-19T03:16:07.526Z,80.57
2022-11-19T03:17:15.086Z,80.88
2022-11-19T03:18:22.853Z,80.96
2022-11-19T03:19:34.307Z,81.04
2022-11-19T03:20:40.990Z,81.16
2022-11-19T03:21:46.594Z,80.99
2022-11-19T03:22:56.436Z,81.34
2022-11-19T03:24:01.975Z,80.93
2022-11-19T03:25:10.281Z,81.03
2022-11-19T03:26:18.688Z,81.00
2022-11-19T03:27:25.497Z,81.22
2022-11-19T03:28:31.019Z,81.19
2022-11-19T03:29:37.460Z,81.32
2022-11-19T03:30:41.458Z,81.48
2022-11-19T03:31:48.897Z,81.23
2022-11-19T03:32:55.536Z,81.42
2022-11-19T03:34:03.594Z,81.23
2022-11-19T03:35:09.507Z,81.51
2022-11-19T03:36:17.548Z,81.32
2022-11-19T03:37:21.936Z,81.16
2022-11-19T03:38:29.360Z,81.14
2022-11-19T03:39:34.647Z,81.38
2022-11-19T03:40:39.026Z,81.33
2022-11-19T03:41:43.227Z,81.49
2022-11-19T03:42:50.693Z,81.54
2022-11-19T03:43:56.415Z,81.34
2022-11-19T03:45:04.893Z,81.59
2022-11-19T03:46:11.617Z,81.44
2022-11-19T03:47:17.781Z,81.31
2022-11-19T03:48:21.805Z,81.74
2022-11-19T03:49:31.856Z,81.59
2022-11-19T03:50:40.575Z,81.47
2022-11-19T03:51:48.369Z,81.34
2022-11-19T03:52:51.196Z,81.40
2022-11-19T03:53:54.977Z,81.40
2022-11-19T03:54:58.029Z,81.61
2022-11-19T03:56:04.423Z,81.52
2022-11-19T03:57:07.841Z,81.56
2022-11-19T03:58:12.496Z,81.52
2022-11-19T03:59:16.147Z,81.42
2022-11-19T04:00:20.343Z,81.54
2022-11-19T04:01:23.248Z,81.56
2022-11-19T04:02:27.136Z,81.25
2022-11-19T04:03:29.977Z,81.32
2022-11-19T04:04:37.677Z,81.35
2022-11-19T04:05:41.390Z,81.18
2022-11-19T04:06:44.174Z,81.22
2022-11-19T04:07:47.820Z,81.13
2022-11-19T04:08:50.487Z,81.07
2022-11-19T04:09:54.147Z,80.97
2022-11-19T04:10:57.151Z,80.95
2022-11-19T04:12:00.973Z,80.90
2022-11-19T04:13:03.711Z,80.79
2022-11-19T04:14:07.556Z,80.70
2022-11-19T04:15:12.164Z,80.97
2022-11-19T04:16:15.896Z,80.89
2022-11-19T04:17:19.447Z,80.86
2022-11-19T04:18:23.096Z,81.08
2022-11-19T04:19:25.858Z,81.01
2022-11-19T04:20:31.029Z,81.07
2022-11-19T04:21:33.697Z,81.06
2022-11-19T04:22:37.466Z,80.88
2022-11-19T04:23:40.208Z,80.90
2022-11-19T04:24:43.938Z,80.90
2022-11-19T04:25:47.121Z,80.80
2022-11-19T04:26:50.845Z,80.72
2022-11-19T04:27:54.506Z,80.98
2022-11-19T04:28:57.186Z,81.16
2022-11-19T04:30:02.273Z,81.12
2022-11-19T04:31:05.286Z,81.01
2022-11-19T04:32:09.009Z,81.02
2022-11-19T04:33:11.674Z,81.08
2022-11-19T04:34:15.446Z,80.94
2022-11-19T04:35:21.989Z,80.88
2022-11-19T04:36:27.236Z,80.76
2022-11-19T04:37:29.973Z,80.64
2022-11-19T04:38:34.905Z,81.05
2022-11-19T04:39:37.577Z,80.99
2022-11-19T04:40:41.537Z,80.97
2022-11-19T04:41:44.158Z,80.76
2022-11-19T04:42:47.886Z,80.71
2022-11-19T04:43:50.579Z,80.65
2022-11-19T04:44:54.270Z,80.82
2022-11-19T04:45:57.055Z,80.71
2022-11-19T04:47:01.176Z,80.72
2022-11-19T04:48:03.979Z,80.66
2022-11-19T04:49:07.808Z,80.63
2022-11-19T04:50:10.663Z,80.66
2022-11-19T04:51:14.366Z,80.35
2022-11-19T04:52:18.478Z,80.56
2022-11-19T04:53:22.534Z,80.70
2022-11-19T04:54:25.148Z,80.30
2022-11-19T04:55:28.886Z,80.42
2022-11-19T04:56:31.534Z,80.49
2022-11-19T04:57:35.347Z,80.40
2022-11-19T04:58:38.007Z,80.42
2022-11-19T04:59:41.674Z,80.49
2022-11-19T05:00:44.417Z,80.50
2022-11-19T05:01:49.508Z,80.36
2022-11-19T05:02:52.277Z,80.40
2022-11-19T05:03:56.023Z,80.47
2022-11-19T05:04:58.777Z,80.11
2022-11-19T05:06:02.549Z,80.52
2022-11-19T05:07:05.356Z,80.20
2022-11-19T05:08:10.467Z,80.38
2022-11-19T05:09:13.268Z,80.30
2022-11-19T05:10:17.021Z,80.39
2022-11-19T05:11:19.708Z,80.33
2022-11-19T05:12:23.494Z,80.27
2022-11-19T05:13:26.134Z,80.01
2022-11-19T05:14:30.690Z,80.02
2022-11-19T05:15:33.516Z,80.30
2022-11-19T05:16:37.308Z,80.13
2022-11-19T05:17:40.007Z,80.30
2022-11-19T05:18:43.823Z,80.37
2022-11-19T05:19:46.498Z,80.49
2022-11-19T05:20:50.190Z,80.36
2022-11-19T05:21:52.839Z,80.33
2022-11-19T05:22:56.605Z,80.79
2022-11-19T05:24:00.712Z,80.64
2022-11-19T05:25:04.539Z,80.69
2022-11-19T05:26:07.945Z,80.46
2022-11-19T05:27:11.672Z,80.56
2022-11-19T05:28:15.103Z,80.57
2022-11-19T05:29:20.442Z,80.61
2022-11-19T05:30:23.547Z,80.82
2022-11-19T05:31:28.700Z,80.83
2022-11-19T05:32:31.879Z,80.96
2022-11-19T05:33:35.628Z,80.80
2022-11-19T05:34:38.731Z,80.91
2022-11-19T05:35:42.445Z,80.55
2022-11-19T05:36:45.197Z,80.90
2022-11-19T05:37:50.236Z,80.55
2022-11-19T05:38:52.866Z,80.48
2022-11-19T05:39:58.028Z,80.64
2022-11-19T05:41:00.688Z,80.59
2022-11-19T05:42:04.384Z,80.53
2022-11-19T05:43:07.476Z,80.50
2022-11-19T05:44:11.337Z,80.63
2022-11-19T05:45:14.099Z,80.44
2022-11-19T05:46:17.848Z,80.48
2022-11-19T05:47:20.528Z,80.41
2022-11-19T05:48:24.258Z,80.29
2022-11-19T05:49:26.982Z,80.28
2022-11-19T05:50:30.788Z,80.08
2022-11-19T05:51:33.516Z,80.14
2022-11-19T05:52:38.076Z,79.99
2022-11-19T05:53:40.879Z,79.95
2022-11-19T05:54:44.627Z,80.44
2022-11-19T05:55:49.845Z,80.10
2022-11-19T05:56:52.496Z,80.13
2022-11-19T05:57:56.297Z,80.13
2022-11-19T05:58:59.099Z,80.35
2022-11-19T06:00:02.796Z,80.43
2022-11-19T06:01:15.276Z,80.52
2022-11-19T06:02:19.156Z,80.62
2022-11-19T06:03:21.908Z,80.78
2022-11-19T06:04:25.780Z,80.86
2022-11-19T06:05:28.807Z,80.97
2022-11-19T06:06:32.479Z,81.10
2022-11-19T06:07:35.216Z,80.94
2022-11-19T06:08:39.011Z,81.05
2022-11-19T06:09:41.698Z,81.09
2022-11-19T06:10:45.497Z,80.96
2022-11-19T06:11:50.569Z,80.96
2022-11-19T06:12:54.461Z,80.83
2022-11-19T06:13:57.367Z,80.91
2022-11-19T06:15:02.217Z,80.93
2022-11-19T06:16:06.572Z,80.68
2022-11-19T06:17:09.277Z,80.90
2022-11-19T06:18:13.076Z,80.61
2022-11-19T06:19:15.775Z,80.79
2022-11-19T06:20:19.661Z,80.83
2022-11-19T06:21:22.367Z,80.74
2022-11-19T06:22:26.136Z,80.65
2022-11-19T06:23:28.947Z,80.80
2022-11-19T06:24:32.805Z,80.84
2022-11-19T06:25:35.518Z,80.74
2022-11-19T06:26:39.247Z,80.90
2022-11-19T06:27:43.297Z,80.90
2022-11-19T06:28:47.044Z,81.08
2022-11-19T06:29:54.980Z,81.00
2022-11-19T06:30:59.978Z,80.81
2022-11-19T06:32:02.674Z,80.92
2022-11-19T06:33:06.376Z,80.60
2022-11-19T06:34:09.345Z,80.60
2022-11-19T06:35:14.497Z,80.73
2022-11-19T06:36:17.359Z,80.75
2022-11-19T06:37:21.238Z,81.14
2022-11-19T06:38:24.157Z,81.23
2022-11-19T06:39:28.146Z,81.08
2022-11-19T06:40:30.803Z,81.09
2022-11-19T06:41:34.510Z,81.08
2022-11-19T06:42:37.153Z,80.88
2022-11-19T06:43:43.250Z,80.91
2022-11-19T06:44:45.882Z,80.99
2022-11-19T06:45:49.537Z,81.07
2022-11-19T06:46:52.186Z,81.12
2022-11-19T06:47:55.877Z,81.16
2022-11-19T06:48:58.758Z,81.11
2022-11-19T06:50:02.480Z,81.18
2022-11-19T06:51:06.082Z,81.21
2022-11-19T06:52:09.828Z,80.91
2022-11-19T06:53:12.677Z,81.17
2022-11-19T06:54:16.504Z,81.18
2022-11-19T06:55:19.356Z,81.07
2022-11-19T06:56:23.028Z,81.05
2022-11-19T06:57:25.960Z,81.11
2022-11-19T06:58:30.160Z,81.17
2022-11-19T06:59:35.208Z,81.03
2022-11-19T07:00:38.956Z,81.03
2022-11-19T07:01:41.752Z,81.00
2022-11-19T07:02:45.547Z,80.84
2022-11-19T07:03:48.169Z,81.13
2022-11-19T07:04:51.982Z,80.97
2022-11-19T07:05:57.990Z,81.06
2022-11-19T07:07:01.773Z,80.96
2022-11-19T07:08:04.638Z,80.97
2022-11-19T07:09:08.478Z,81.02
2022-11-19T07:10:11.206Z,80.84
2022-11-19T07:11:27.121Z,81.10
2022-11-19T07:12:29.840Z,81.11
2022-11-19T07:13:47.446Z,81.02
2022-11-19T07:14:52.528Z,81.09
2022-11-19T07:15:55.214Z,81.01
2022-11-19T07:16:59.057Z,80.94
2022-11-19T07:18:02.018Z,81.04
2022-11-19T07:19:07.097Z,80.98
2022-11-19T07:20:11.483Z,80.74
2022-11-19T07:21:15.150Z,80.71
2022-11-19T07:22:17.855Z,80.71
2022-11-19T07:23:21.549Z,80.92
2022-11-19T07:24:25.393Z,81.13
2022-11-19T07:25:28.365Z,81.23
2022-11-19T07:26:32.807Z,81.02
2022-11-19T07:27:35.537Z,81.28
2022-11-19T07:28:39.218Z,81.49
2022-11-19T07:29:43.037Z,81.14
2022-11-19T07:30:47.109Z,81.27
2022-11-19T07:31:51.013Z,81.59
2022-11-19T07:32:54.396Z,81.42
2022-11-19T07:33:58.209Z,81.51
2022-11-19T07:35:01.857Z,81.44
2022-11-19T07:36:05.068Z,81.41
2022-11-19T07:37:08.820Z,81.37
2022-11-19T07:38:11.501Z,81.29
2022-11-19T07:39:15.206Z,81.33
2022-11-19T07:40:19.068Z,81.39
2022-11-19T07:41:40.406Z,81.42
2022-11-19T07:42:53.319Z,81.42
2022-11-19T07:43:57.097Z,81.24
2022-11-19T07:44:59.738Z,81.17
2022-11-19T07:46:08.976Z,81.20
2022-11-19T07:47:11.647Z,81.10
2022-11-19T07:48:15.440Z,81.39
2022-11-19T07:49:19.430Z,81.51
2022-11-19T07:50:23.429Z,81.42
2022-11-19T07:51:26.621Z,81.41
2022-11-19T07:52:30.896Z,81.52
2022-11-19T07:53:33.527Z,81.48
2022-11-19T07:54:37.389Z,81.34
2022-11-19T07:55:40.187Z,81.16
2022-11-19T07:56:44.309Z,81.08
2022-11-19T07:57:46.957Z,80.86
2022-11-19T07:58:50.665Z,80.78
2022-11-19T07:59:54.420Z,80.94
2022-11-19T08:00:57.293Z,80.72
2022-11-19T08:02:02.627Z,80.89
2022-11-19T08:03:05.943Z,80.86
2022-11-19T08:04:09.897Z,81.02
2022-11-19T08:05:12.587Z,81.15
2022-11-19T08:06:16.873Z,80.88
2022-11-19T08:07:20.749Z,80.51
2022-11-19T08:08:23.469Z,80.36
2022-11-19T08:09:27.347Z,80.63
2022-11-19T08:10:31.866Z,80.68
2022-11-19T08:11:35.842Z,80.58
2022-11-19T08:12:38.546Z,80.45
2022-11-19T08:13:42.713Z,80.29
2022-11-19T08:14:45.377Z,80.09
2022-11-19T08:15:49.091Z,80.07
2022-11-19T08:17:09.925Z,79.94
2022-11-19T08:18:14.109Z,79.52
2022-11-19T08:19:19.000Z,79.58
2022-11-19T08:20:22.070Z,79.67
2022-11-19T08:21:25.783Z,79.53
2022-11-19T08:22:30.048Z,79.49
2022-11-19T08:23:32.768Z,79.58
2022-11-19T08:24:36.587Z,79.25
2022-11-19T08:25:39.597Z,78.78
2022-11-19T08:26:43.569Z,79.12
2022-11-19T08:27:47.288Z,79.26
2022-11-19T08:28:50.026Z,78.76
2022-11-19T08:29:53.687Z,78.40
2022-11-19T08:30:57.749Z,78.23
2022-11-19T08:32:01.656Z,78.12
2022-11-19T08:33:04.480Z,77.79
2022-11-19T08:34:09.753Z,77.60
2022-11-19T08:35:12.392Z,77.50
2022-11-19T08:36:16.192Z,77.52
2022-11-19T08:37:19.958Z,77.57
2022-11-19T08:38:22.619Z,77.02
2022-11-19T08:39:26.336Z,76.86
2022-11-19T08:40:29.055Z,76.80
2022-11-19T08:41:49.916Z,76.52
2022-11-19T08:43:02.537Z,76.48
2022-11-19T08:44:05.752Z,76.77
2022-11-19T08:45:10.162Z,76.63
2022-11-19T08:46:12.928Z,76.75
2022-11-19T08:47:16.918Z,76.32
2022-11-19T08:48:20.016Z,76.40
2022-11-19T08:49:25.268Z,76.47
2022-11-19T08:50:28.774Z,76.31
2022-11-19T08:51:32.688Z,76.51
2022-11-19T08:52:35.584Z,76.71
2022-11-19T08:53:39.237Z,76.35
2022-11-19T08:54:43.720Z,76.24
2022-11-19T08:55:51.652Z,76.08
2022-11-19T08:56:55.782Z,76.25
2022-11-19T08:58:02.277Z,76.16
2022-11-19T08:59:06.028Z,75.81
2022-11-19T09:00:09.918Z,76.04
2022-11-19T09:01:15.154Z,75.56
2022-11-19T09:02:19.337Z,75.05
2022-11-19T09:03:22.602Z,75.25
2022-11-19T09:04:27.948Z,75.18
2022-11-19T09:05:32.058Z,75.37
2022-11-19T09:06:35.287Z,74.94
2022-11-19T09:07:39.159Z,75.39
2022-11-19T09:08:42.228Z,75.28
2022-11-19T09:09:46.056Z,74.93
2022-11-19T09:10:48.732Z,74.49
2022-11-19T09:11:52.426Z,74.64
2022-11-19T09:12:55.182Z,74.72
2022-11-19T09:13:59.097Z,74.72
2022-11-19T09:15:02.948Z,73.80
2022-11-19T09:16:07.315Z,73.63
2022-11-19T09:17:11.088Z,73.71
2022-11-19T09:18:15.200Z,73.64
2022-11-19T09:19:18.967Z,73.70
2022-11-19T09:20:24.446Z,72.85
2022-11-19T09:21:27.141Z,72.99
2022-11-19T09:22:31.636Z,73.09
2022-11-19T09:23:35.294Z,72.75
2022-11-19T09:24:38.027Z,72.64
2022-11-19T09:25:41.716Z,72.73
2022-11-19T09:26:48.864Z,72.43
2022-11-19T09:27:55.498Z,72.13
2022-11-19T09:28:58.297Z,72.07
2022-11-19T09:30:01.974Z,71.76
2022-11-19T09:31:08.416Z,71.55
2022-11-19T09:32:11.202Z,71.47
2022-11-19T09:33:14.956Z,71.31
2022-11-19T09:34:19.365Z,71.69
2022-11-19T09:35:23.691Z,71.35
2022-11-19T09:36:27.594Z,71.51
2022-11-19T09:37:34.182Z,71.54
2022-11-19T09:38:38.034Z,71.48
2022-11-19T09:39:40.721Z,71.62
2022-11-19T09:40:46.109Z,71.54
2022-11-19T09:41:54.348Z,71.64
2022-11-19T09:43:08.455Z,72.00
2022-11-19T09:44:33.163Z,71.88
2022-11-19T09:45:45.379Z,72.12
2022-11-19T09:46:56.719Z,72.50
2022-11-19T09:48:10.964Z,72.61
2022-11-19T09:49:20.296Z,73.10
2022-11-19T09:50:26.509Z,73.21
2022-11-19T09:51:32.816Z,73.46
2022-11-19T09:52:41.248Z,73.18
2022-11-19T09:53:52.188Z,73.47
2022-11-19T09:54:55.838Z,73.39
2022-11-19T09:56:00.666Z,73.28
2022-11-19T09:57:07.429Z,73.53
2022-11-19T09:58:14.876Z,73.49
2022-11-19T09:59:25.654Z,73.16
2022-11-19T10:00:30.351Z,72.64
2022-11-19T10:01:34.458Z,72.95
2022-11-19T10:02:37.361Z,72.65
2022-11-19T10:03:42.691Z,72.34
2022-11-19T10:04:48.748Z,72.16
2022-11-19T10:06:17.174Z,72.04
2022-11-19T10:07:28.704Z,72.31
2022-11-19T10:08:40.937Z,72.23
2022-11-19T10:09:53.467Z,72.06
2022-11-19T10:11:08.223Z,71.88
2022-11-19T10:12:20.897Z,71.73
2022-11-19T10:13:41.100Z,71.71
2022-11-19T10:14:50.026Z,71.28
2022-11-19T10:16:08.834Z,71.44
2022-11-19T10:17:20.638Z,71.54
2022-11-19T10:18:31.452Z,71.63
2022-11-19T10:19:42.021Z,72.13
2022-11-19T10:21:00.089Z,72.08
2022-11-19T10:22:09.802Z,72.19
2022-11-19T10:23:15.938Z,71.90
2022-11-19T10:24:27.581Z,71.33
2022-11-19T10:25:34.090Z,71.35
2022-11-19T10:26:39.589Z,71.24
2022-11-19T10:27:47.734Z,70.91
2022-11-19T10:28:56.332Z,70.89
2022-11-19T10:30:00.757Z,70.77
2022-11-19T10:31:08.657Z,70.69
2022-11-19T10:32:21.546Z,70.64
2022-11-19T10:33:29.271Z,70.57
2022-11-19T10:34:34.904Z,70.78
2022-11-19T10:35:39.886Z,70.83
2022-11-19T10:36:47.044Z,70.83
2022-11-19T10:37:53.920Z,70.49
2022-11-19T10:39:04.097Z,70.67
2022-11-19T10:40:13.269Z,70.56
2022-11-19T10:41:18.679Z,70.95
2022-11-19T10:42:24.830Z,71.49
2022-11-19T10:43:31.465Z,71.15
2022-11-19T10:44:38.015Z,71.42
2022-11-19T10:45:41.789Z,71.06
2022-11-19T10:46:44.684Z,70.20
2022-11-19T10:47:52.379Z,69.53
2022-11-19T10:48:56.938Z,69.07
2022-11-19T10:50:00.656Z,68.63
2022-11-19T10:51:10.224Z,68.63
2022-11-19T10:52:25.413Z,68.71
2022-11-19T10:53:32.400Z,68.67
2022-11-19T10:54:35.107Z,68.90
2022-11-19T10:55:40.946Z,68.63
2022-11-19T10:56:44.875Z,68.46
2022-11-19T10:57:48.998Z,68.67
2022-11-19T10:58:55.456Z,68.32
2022-11-19T10:59:58.447Z,68.38
2022-11-19T11:01:04.098Z,68.92
2022-11-19T11:02:23.853Z,68.99
2022-11-19T11:03:35.170Z,68.61
2022-11-19T11:05:02.947Z,69.03
2022-11-19T11:06:10.261Z,69.55
2022-11-19T11:07:12.949Z,69.07
2022-11-19T11:08:18.107Z,69.04
2022-11-19T11:09:32.238Z,68.72
2022-11-19T11:10:39.176Z,69.24
2022-11-19T11:11:59.796Z,68.92
2022-11-19T11:13:43.255Z,68.72
2022-11-19T11:14:55.134Z,69.66
2022-11-19T11:15:58.956Z,70.17
2022-11-19T11:17:02.679Z,70.30
2022-11-19T11:18:07.868Z,69.76
2022-11-19T11:19:15.059Z,70.10
2022-11-19T11:20:23.246Z,69.24
2022-11-19T11:21:35.935Z,68.76
2022-11-19T11:22:39.077Z,68.76
2022-11-19T11:23:52.877Z,68.87
2022-11-19T11:24:55.589Z,69.39
2022-11-19T11:26:05.288Z,68.71
2022-11-19T11:27:31.109Z,68.97
2022-11-19T11:28:35.374Z,68.94
2022-11-19T11:29:39.045Z,68.38
2022-11-19T11:30:52.638Z,68.28
2022-11-19T11:31:56.455Z,68.37
2022-11-19T11:32:59.275Z,68.03
2022-11-19T11:34:03.575Z,67.42
2022-11-19T11:35:12.153Z,67.24
2022-11-19T11:36:21.446Z,66.44
2022-11-19T11:37:24.766Z,67.07
2022-11-19T11:38:29.186Z,67.80
2022-11-19T11:39:36.807Z,68.24
2022-11-19T11:40:39.496Z,67.63
2022-11-19T11:43:07.283Z,67.71
2022-11-19T11:44:20.116Z,67.76
2022-11-19T11:45:27.988Z,68.21
2022-11-19T11:46:42.046Z,67.77
2022-11-19T11:47:45.818Z,67.96
2022-11-19T11:48:49.316Z,68.14
2022-11-19T11:49:59.448Z,68.49
2022-11-19T11:51:02.065Z,68.78
2022-11-19T11:52:14.954Z,68.91
2022-11-19T11:53:30.325Z,69.00
2022-11-19T11:54:35.684Z,68.98
2022-11-19T11:55:38.894Z,68.60
2022-11-19T11:56:42.666Z,69.08
2022-11-19T11:57:53.278Z,68.82
2022-11-19T11:59:15.492Z,69.15
2022-11-19T12:00:35.149Z,68.84
2022-11-19T12:01:38.657Z,68.71
2022-11-19T12:02:42.440Z,68.61
2022-11-19T12:03:55.678Z,68.94
2022-11-19T12:05:02.434Z,69.11
2022-11-19T12:06:09.768Z,69.08
2022-11-19T12:07:21.629Z,68.33
2022-11-19T12:08:45.394Z,67.56
2022-11-19T12:09:55.497Z,67.89
2022-11-19T12:11:03.778Z,68.18
2022-11-19T12:12:11.167Z,68.28
2022-11-19T12:13:39.915Z,67.88
2022-11-19T12:14:50.427Z,68.02
2022-11-19T12:15:57.635Z,68.24
2022-11-19T12:17:23.809Z,68.05
2022-11-19T12:18:32.684Z,68.31
2022-11-19T12:19:56.146Z,68.24
2022-11-19T12:21:03.515Z,67.96
2022-11-19T12:22:13.943Z,68.00
2022-11-19T12:23:30.245Z,68.43
2022-11-19T12:24:41.755Z,68.24
2022-11-19T12:25:57.623Z,68.56
2022-11-19T12:27:11.709Z,68.07
2022-11-19T12:28:38.177Z,68.26
2022-11-19T12:29:48.746Z,68.95
2022-11-19T12:31:00.925Z,68.07
2022-11-19T12:32:17.884Z,67.91
2022-11-19T12:33:29.133Z,67.72
2022-11-19T12:34:56.693Z,67.17
2022-11-19T12:36:10.175Z,66.76
2022-11-19T12:37:23.695Z,66.29
2022-11-19T12:38:45.266Z,67.08
2022-11-19T12:39:54.136Z,67.71
2022-11-19T12:41:09.384Z,67.71
2022-11-19T12:42:35.419Z,67.72
2022-11-19T12:44:00.324Z,67.69
2022-11-19T12:45:07.463Z,67.50
2022-11-19T12:46:19.850Z,67.87
2022-11-19T12:47:31.059Z,68.20
2022-11-19T12:48:52.044Z,67.83
2022-11-19T12:50:02.575Z,68.13
2022-11-19T12:51:09.768Z,68.16
2022-11-19T12:52:36.955Z,68.44
2022-11-19T12:53:57.351Z,68.19
2022-11-19T12:55:06.312Z,67.76
2022-11-19T12:56:21.885Z,67.88
2022-11-19T12:57:42.348Z,68.11
2022-11-19T12:58:49.556Z,68.32
2022-11-19T13:00:09.326Z,68.54
2022-11-19T13:01:16.075Z,68.12
2022-11-19T13:02:23.767Z,68.10
2022-11-19T13:03:41.865Z,68.77
2022-11-19T13:04:47.255Z,68.80
2022-11-19T13:05:53.568Z,68.90
2022-11-19T13:07:00.027Z,69.13
2022-11-19T13:08:07.974Z,68.66
2022-11-19T13:09:17.909Z,68.85
2022-11-19T13:10:25.591Z,68.76
2022-11-19T13:11:36.711Z,69.42
2022-11-19T13:12:43.206Z,69.04
2022-11-19T13:13:48.825Z,69.78
2022-11-19T13:14:55.204Z,69.64
2022-11-19T13:16:01.047Z,69.51
2022-11-19T13:17:05.358Z,69.67
2022-11-19T13:18:12.547Z,69.80
2022-11-19T13:19:23.694Z,69.63
2022-11-19T13:20:30.500Z,69.22
2022-11-19T13:21:41.223Z,69.20
2022-11-19T13:22:47.661Z,69.19
2022-11-19T13:23:52.463Z,69.30
2022-11-19T13:24:59.525Z,69.42
2022-11-19T13:26:04.536Z,69.18
2022-11-19T13:27:16.590Z,68.94
2022-11-19T13:28:27.359Z,69.14
2022-11-19T13:29:38.024Z,69.45
2022-11-19T13:30:44.666Z,69.62
2022-11-19T13:31:52.846Z,69.67
2022-11-19T13:33:03.841Z,69.51
2022-11-19T13:34:15.678Z,69.21
2022-11-19T13:35:23.704Z,68.65
2022-11-19T13:36:30.865Z,69.09
2022-11-19T13:37:44.424Z,68.73
2022-11-19T13:38:53.148Z,68.95
2022-11-19T13:40:01.229Z,69.24
2022-11-19T13:41:09.528Z,68.93
2022-11-19T13:42:33.283Z,69.05
2022-11-19T13:43:56.675Z,68.65
2022-11-19T13:44:59.446Z,69.03
2022-11-19T13:46:10.587Z,69.43
2022-11-19T13:47:17.486Z,69.39
2022-11-19T13:48:25.360Z,68.77
2022-11-19T13:49:31.794Z,69.19
2022-11-19T13:50:39.135Z,68.56
2022-11-19T13:51:46.471Z,68.97
2022-11-19T13:52:54.648Z,69.06
2022-11-19T13:54:02.948Z,68.91
2022-11-19T13:55:32.726Z,69.34
2022-11-19T13:56:42.892Z,69.42
2022-11-19T13:57:48.408Z,69.48
2022-11-19T13:58:53.906Z,69.49
2022-11-19T14:00:03.335Z,69.25
2022-11-19T14:01:43.764Z,69.39
2022-11-19T14:03:07.319Z,69.40
2022-11-19T14:04:22.807Z,69.42
2022-11-19T14:05:38.810Z,69.71
2022-11-19T14:06:56.756Z,69.60
2022-11-19T14:08:25.075Z,69.56
2022-11-19T14:09:37.097Z,69.61
2022-11-19T14:10:45.340Z,69.66
2022-11-19T14:12:02.847Z,69.49
2022-11-19T14:13:38.717Z,69.43
2022-11-19T14:15:16.665Z,69.36
2022-11-19T14:16:44.089Z,69.26
2022-11-19T14:18:10.646Z,68.83
2022-11-19T14:19:33.694Z,69.05
2022-11-19T14:21:07.155Z,69.30
2022-11-19T14:22:51.759Z,69.56
2022-11-19T14:24:12.828Z,69.60